This is the latest recevied weather packets stored in our database for station/object JE3XST-13. If no packets are shown the sender has not sent any weather packets the latest 10 day(s).
| Time | Temp. | Humidity | Pressure | Rain* | Wind** | Luminosity | Snow |
|---|---|---|---|---|---|---|---|
| 1777947319 | 19.44° C | 33% | 1020.6 hPa | 0 mm | - | - | - |
| 1777945518 | 18.89° C | 40% | 1020.9 hPa | 0 mm | - | - | - |
| 1777943717 | 17.78° C | 48% | 1021.1 hPa | 0 mm | - | - | - |
| 1777941919 | 16.67° C | 52% | 1021.3 hPa | 0 mm | - | - | - |
| 1777940118 | 16.11° C | 55% | 1021.4 hPa | 0 mm | - | - | - |
| 1777938319 | 15° C | 61% | 1021.5 hPa | 0 mm | - | - | - |
| 1777936517 | 14.44° C | 66% | 1021.5 hPa | 0 mm | - | - | - |
| 1777934717 | 13.33° C | 73% | 1021.4 hPa | 0 mm | - | - | - |
| 1777932917 | 12.22° C | 78% | 1021.3 hPa | 0 mm | - | - | - |
| 1777931119 | 11.11° C | 81% | 1021 hPa | 0 mm | - | - | - |
| 1777929317 | 10.56° C | 84% | 1020.7 hPa | 0 mm | - | - | - |
| 1777927518 | 10° C | 86% | 1020.2 hPa | 0 mm | - | - | - |
| 1777925718 | 9.44° C | 86% | 1019.7 hPa | 0 mm | - | - | - |
| 1777923918 | 9.44° C | 87% | 1019 hPa | 0 mm | - | - | - |
| 1777922118 | 9.44° C | 87% | 1018.6 hPa | 0 mm | - | - | - |
| 1777920318 | 9.44° C | 87% | 1018.4 hPa | 0 mm | - | - | - |
| 1777918517 | 10° C | 86% | 1018.2 hPa | 0 mm | - | - | - |
| 1777916717 | 10° C | 85% | 1017.9 hPa | 0 mm | - | - | - |
| 1777914918 | 10.56° C | 85% | 1017.7 hPa | 0 mm | - | - | - |
| 1777913119 | 11.11° C | 83% | 1017.4 hPa | 0 mm | - | - | - |
| 1777911318 | 11.11° C | 83% | 1017 hPa | 0 mm | - | - | - |
| 1777909518 | 11.67° C | 81% | 1016.9 hPa | 0 mm | - | - | - |
| 1777907718 | 12.78° C | 77% | 1016.5 hPa | 0 mm | - | - | - |
| 1777905918 | 12.78° C | 76% | 1016.5 hPa | 0 mm | - | - | - |
| 1777904117 | 12.22° C | 77% | 1016.2 hPa | 0 mm | - | - | - |
* Rain latest hour (hover to see other rain measurements)
** Current wind speed in m/s (hover to see current wind gust speed)